Time;durP1;ratioP1;P1;durP2;ratioP2;P2;SDS_P1;SDS_P2;PMS_P1;PMS_P2;Temp;Humidity;BMP_temperature;BMP_pressure;BME280_temperature;BME280_humidity;BME280_pressure;Samples;Min_cycle;Max_cycle;Signal;HPM_P1;HPM_P2
2022/11/16 00:01:18;;;;;;;7.70;5.47;;;;;;;;;;5002331;28;20023;-83
2022/11/16 00:03:44;;;;;;;9.45;5.32;;;;;;;;;;5002050;28;20341;-83
2022/11/16 00:06:11;;;;;;;10.73;5.88;;;;;;;;;;4984648;28;20174;-83
2022/11/16 00:08:39;;;;;;;9.18;5.63;;;;;;;;;;5000627;28;20097;-83
2022/11/16 00:11:07;;;;;;;10.18;5.72;;;;;;;;;;4984242;28;20034;-84
2022/11/16 00:13:33;;;;;;;7.20;5.38;;;;;;;;;;5001870;28;20105;-87
2022/11/16 00:15:59;;;;;;;8.95;5.40;;;;;;;;;;5001967;28;20030;-85
2022/11/16 00:18:25;;;;;;;9.27;5.68;;;;;;;;;;5003826;28;20442;-83
2022/11/16 00:20:52;;;;;;;9.30;6.00;;;;;;;;;;5000034;28;20094;-88
2022/11/16 00:23:18;;;;;;;10.85;6.50;;;;;;;;;;5014857;28;20050;-85
2022/11/16 00:25:44;;;;;;;7.78;6.05;;;;;;;;;;4993568;28;20049;-85
2022/11/16 00:28:11;;;;;;;8.02;5.82;;;;;;;;;;4990163;28;20030;-84
2022/11/16 00:30:37;;;;;;;11.55;6.18;;;;;;;;;;5016860;28;20023;-88
2022/11/16 00:33:04;;;;;;;11.15;5.63;;;;;;;;;;5017278;28;20025;-86
2022/11/16 00:35:30;;;;;;;9.00;5.85;;;;;;;;;;4989813;28;20125;-84
2022/11/16 00:37:56;;;;;;;7.97;4.85;;;;;;;;;;4988609;28;20062;-83
2022/11/16 00:40:22;;;;;;;7.72;4.82;;;;;;;;;;4989530;28;20033;-84
2022/11/16 00:42:48;;;;;;;6.32;4.63;;;;;;;;;;5006205;28;20114;-84
2022/11/16 00:45:14;;;;;;;7.90;4.88;;;;;;;;;;4995712;28;20045;-84
2022/11/16 00:47:40;;;;;;;6.47;4.85;;;;;;;;;;4992173;28;20096;-84
2022/11/16 00:50:06;;;;;;;9.43;5.38;;;;;;;;;;5003654;28;20030;-85
2022/11/16 00:52:32;;;;;;;7.25;5.00;;;;;;;;;;4985625;28;20034;-86
2022/11/16 00:54:58;;;;;;;6.03;4.47;;;;;;;;;;4984764;28;20101;-86
2022/11/16 00:57:24;;;;;;;7.03;4.72;;;;;;;;;;5002604;28;20057;-84
2022/11/16 00:59:50;;;;;;;6.22;4.13;;;;;;;;;;5002849;28;20022;-84
2022/11/16 01:02:16;;;;;;;6.65;4.30;;;;;;;;;;4984582;28;20392;-85
2022/11/16 01:04:43;;;;;;;6.47;4.22;;;;;;;;;;4985552;28;20018;-86
2022/11/16 01:07:09;;;;;;;7.32;4.63;;;;;;;;;;4984015;28;20117;-84
2022/11/16 01:09:35;;;;;;;8.68;5.82;;;;;;;;;;4984680;28;20040;-84
2022/11/16 01:12:11;;;;;;;10.82;6.93;;;;;;;;;;4984159;28;20030;-84
2022/11/16 01:14:38;;;;;;;9.10;6.15;;;;;;;;;;5001092;28;20033;-83
2022/11/16 01:17:04;;;;;;;10.15;5.95;;;;;;;;;;5001435;28;20045;-85
2022/11/16 01:19:30;;;;;;;11.48;7.03;;;;;;;;;;4984249;28;20030;-83
2022/11/16 01:21:56;;;;;;;8.35;5.22;;;;;;;;;;4984038;28;20022;-85
2022/11/16 01:24:23;;;;;;;8.65;5.85;;;;;;;;;;4983220;28;20364;-86
2022/11/16 01:26:49;;;;;;;7.50;6.07;;;;;;;;;;4982661;28;20054;-85
2022/11/16 01:29:15;;;;;;;8.88;5.88;;;;;;;;;;5001860;28;20554;-84
2022/11/16 01:31:41;;;;;;;11.25;6.22;;;;;;;;;;5001919;28;20030;-85
2022/11/16 01:34:07;;;;;;;8.93;6.07;;;;;;;;;;4984114;28;20038;-85
2022/11/16 01:36:35;;;;;;;10.27;5.95;;;;;;;;;;5000594;28;20031;-84
2022/11/16 01:39:03;;;;;;;9.40;5.80;;;;;;;;;;4982826;28;20054;-84
2022/11/16 01:41:29;;;;;;;9.40;5.93;;;;;;;;;;5001175;28;20112;-85
2022/11/16 01:44:06;;;;;;;8.68;5.18;;;;;;;;;;5002390;28;20355;-85
2022/11/16 01:46:32;;;;;;;8.95;5.97;;;;;;;;;;4984804;28;20468;-85
2022/11/16 01:49:04;;;;;;;9.00;5.60;;;;;;;;;;4985286;28;20026;-85
2022/11/16 01:51:31;;;;;;;9.00;6.28;;;;;;;;;;5000888;28;20037;-85
2022/11/16 01:53:58;;;;;;;7.90;5.53;;;;;;;;;;4985571;28;20148;-84
2022/11/16 01:56:25;;;;;;;13.52;6.82;;;;;;;;;;4983690;28;20034;-84
2022/11/16 01:58:51;;;;;;;10.18;6.43;;;;;;;;;;5003985;28;20023;-85
2022/11/16 02:01:18;;;;;;;9.75;6.18;;;;;;;;;;4984408;28;20050;-84
2022/11/16 02:03:44;;;;;;;9.65;5.80;;;;;;;;;;4984030;28;20149;-83
2022/11/16 02:06:10;;;;;;;8.45;5.53;;;;;;;;;;4998983;28;20491;-84
2022/11/16 02:11:45;;;;;;;9.43;6.60;;;;;;;;;;4995178;28;20411;-84
2022/11/16 02:14:23;;;;;;;12.85;8.07;;;;;;;;;;4996917;28;20029;-84
2022/11/16 02:16:52;;;;;;;9.57;6.95;;;;;;;;;;4982199;28;20437;-83
2022/11/16 02:19:24;;;;;;;10.45;7.18;;;;;;;;;;5000065;28;20511;-82
2022/11/16 02:21:56;;;;;;;11.20;7.53;;;;;;;;;;5000019;28;20026;-85
2022/11/16 02:24:35;;;;;;;11.80;8.85;;;;;;;;;;4982398;28;20031;-84
2022/11/16 02:27:15;;;;;;;12.60;8.80;;;;;;;;;;4982658;28;20097;-84
2022/11/16 02:29:50;;;;;;;13.63;9.10;;;;;;;;;;5001206;28;20041;-84
2022/11/16 02:32:18;;;;;;;13.80;9.00;;;;;;;;;;4997445;28;20528;-84
2022/11/16 02:34:47;;;;;;;13.57;8.55;;;;;;;;;;4998618;28;20424;-84
2022/11/16 02:37:15;;;;;;;13.75;8.88;;;;;;;;;;4983410;28;20023;-82
2022/11/16 02:39:42;;;;;;;11.90;8.07;;;;;;;;;;5000472;28;20078;-83
2022/11/16 02:42:12;;;;;;;13.90;9.30;;;;;;;;;;4981240;28;20026;-85
2022/11/16 02:44:41;;;;;;;17.48;10.35;;;;;;;;;;4981794;28;20019;-84
2022/11/16 02:47:09;;;;;;;11.65;8.65;;;;;;;;;;4981420;28;20030;-84
2022/11/16 02:49:38;;;;;;;18.13;11.50;;;;;;;;;;4981628;28;20505;-83
2022/11/16 02:52:05;;;;;;;16.27;11.57;;;;;;;;;;4981414;28;20099;-83
2022/11/16 02:54:31;;;;;;;17.23;12.13;;;;;;;;;;4981707;28;20057;-85
2022/11/16 02:57:13;;;;;;;16.38;11.55;;;;;;;;;;4998627;28;20487;-84
2022/11/16 02:59:41;;;;;;;15.90;11.02;;;;;;;;;;4981267;28;20027;-83
2022/11/16 03:02:07;;;;;;;14.68;10.07;;;;;;;;;;5000075;28;20022;-85
2022/11/16 03:04:45;;;;;;;22.67;12.98;;;;;;;;;;4981918;28;20054;-85
2022/11/16 03:07:13;;;;;;;16.88;11.90;;;;;;;;;;5002321;28;20051;-84
2022/11/16 03:09:41;;;;;;;18.58;12.23;;;;;;;;;;5004169;28;20054;-84
2022/11/16 03:12:09;;;;;;;16.10;12.55;;;;;;;;;;5006307;28;20487;-84
2022/11/16 03:14:38;;;;;;;18.00;11.63;;;;;;;;;;4985271;28;20077;-85
2022/11/16 03:17:05;;;;;;;20.80;12.40;;;;;;;;;;5001535;28;20027;-85
2022/11/16 03:19:39;;;;;;;17.52;12.15;;;;;;;;;;5002472;28;20027;-86
2022/11/16 03:22:10;;;;;;;19.05;12.95;;;;;;;;;;4984948;28;20034;-85
2022/11/16 03:24:36;;;;;;;16.45;12.32;;;;;;;;;;4983196;28;20106;-83
2022/11/16 03:27:14;;;;;;;19.15;13.15;;;;;;;;;;4983923;28;20368;-83
2022/11/16 03:29:54;;;;;;;17.42;12.10;;;;;;;;;;5014191;28;20074;-87
2022/11/16 03:32:24;;;;;;;16.27;11.50;;;;;;;;;;5013705;28;20034;-83
2022/11/16 03:34:56;;;;;;;20.52;13.00;;;;;;;;;;5002983;28;20104;-86
2022/11/16 03:37:23;;;;;;;18.23;13.02;;;;;;;;;;4985653;28;20045;-85
2022/11/16 03:39:50;;;;;;;19.55;12.85;;;;;;;;;;5003246;28;20223;-83
2022/11/16 03:42:17;;;;;;;19.33;13.90;;;;;;;;;;5013844;28;20032;-83
2022/11/16 03:44:44;;;;;;;16.15;12.25;;;;;;;;;;5019754;28;20034;-89
2022/11/16 03:47:11;;;;;;;15.68;11.80;;;;;;;;;;5019715;28;20022;-88
2022/11/16 03:49:37;;;;;;;18.73;12.73;;;;;;;;;;5019843;28;20014;-89
2022/11/16 03:52:03;;;;;;;17.27;12.25;;;;;;;;;;5019592;28;20053;-88
2022/11/16 03:54:32;;;;;;;17.15;12.10;;;;;;;;;;5019192;28;20074;-89
2022/11/16 03:56:58;;;;;;;15.52;11.05;;;;;;;;;;5001405;28;20053;-89
2022/11/16 03:59:24;;;;;;;14.50;11.00;;;;;;;;;;5001296;28;20037;-87
2022/11/16 04:01:51;;;;;;;14.43;11.07;;;;;;;;;;5018837;28;20078;-87
2022/11/16 04:37:53;;;;;;;19.15;13.65;;;;;;;;;;5017908;28;20037;-86
2022/11/16 04:40:32;;;;;;;17.17;12.35;;;;;;;;;;5000273;28;20083;-87
2022/11/16 04:43:00;;;;;;;15.93;12.38;;;;;;;;;;4994609;28;20073;-83
2022/11/16 04:48:13;;;;;;;21.10;12.93;;;;;;;;;;5001580;28;20046;-84
2022/11/16 04:50:39;;;;;;;16.30;11.60;;;;;;;;;;4982446;28;20085;-85
2022/11/16 04:53:05;;;;;;;16.67;12.70;;;;;;;;;;4982481;28;20105;-85
2022/11/16 04:55:32;;;;;;;16.77;12.40;;;;;;;;;;4999241;28;20046;-84
2022/11/16 04:57:58;;;;;;;17.08;13.13;;;;;;;;;;4999210;28;20088;-84
2022/11/16 05:00:24;;;;;;;17.25;13.10;;;;;;;;;;4981913;28;20038;-84
2022/11/16 05:02:50;;;;;;;19.77;13.45;;;;;;;;;;4983311;28;20487;-85
2022/11/16 05:05:16;;;;;;;15.30;11.77;;;;;;;;;;4983116;28;20089;-85
2022/11/16 05:07:43;;;;;;;14.45;11.48;;;;;;;;;;4981900;28;20041;-84
2022/11/16 05:10:09;;;;;;;14.93;11.20;;;;;;;;;;4981767;28;20493;-85
2022/11/16 05:12:35;;;;;;;16.27;10.88;;;;;;;;;;4981976;28;20117;-85
2022/11/16 05:15:01;;;;;;;12.27;9.80;;;;;;;;;;4979884;28;20050;-83
2022/11/16 05:17:27;;;;;;;13.07;9.50;;;;;;;;;;4980571;28;20096;-84
2022/11/16 05:22:38;;;;;;;15.45;11.07;;;;;;;;;;4999556;28;20088;-83
2022/11/16 05:25:05;;;;;;;18.23;12.63;;;;;;;;;;4981257;28;20105;-84
2022/11/16 05:27:31;;;;;;;17.30;11.32;;;;;;;;;;5005837;28;20014;-86
2022/11/16 05:29:58;;;;;;;17.45;11.80;;;;;;;;;;5015336;28;20030;-84
2022/11/16 05:32:25;;;;;;;14.55;11.27;;;;;;;;;;4981110;28;20037;-84
2022/11/16 05:34:51;;;;;;;16.67;11.07;;;;;;;;;;4981128;28;20169;-84
2022/11/16 05:37:18;;;;;;;18.38;12.50;;;;;;;;;;4998282;28;20088;-86
2022/11/16 05:39:44;;;;;;;15.02;10.68;;;;;;;;;;4981590;28;20022;-85
2022/11/16 05:42:10;;;;;;;19.10;11.70;;;;;;;;;;4987887;28;20032;-84
2022/11/16 05:44:36;;;;;;;15.77;11.32;;;;;;;;;;4998206;28;20120;-84
2022/11/16 05:47:02;;;;;;;16.17;10.82;;;;;;;;;;4998181;28;20460;-83
2022/11/16 05:49:28;;;;;;;16.05;11.07;;;;;;;;;;4980402;28;20035;-83
2022/11/16 05:51:54;;;;;;;15.73;11.68;;;;;;;;;;4981068;28;20058;-81
2022/11/16 05:54:23;;;;;;;13.52;9.70;;;;;;;;;;4981011;28;20031;-83
2022/11/16 05:56:50;;;;;;;16.55;11.25;;;;;;;;;;4978109;28;20030;-84
2022/11/16 05:59:16;;;;;;;15.88;10.55;;;;;;;;;;4980377;28;20113;-82
2022/11/16 06:01:43;;;;;;;12.55;9.82;;;;;;;;;;4979725;28;20088;-82
2022/11/16 06:04:09;;;;;;;15.00;9.77;;;;;;;;;;4996959;28;20085;-83
2022/11/16 06:06:36;;;;;;;13.02;9.27;;;;;;;;;;4979803;28;20127;-82
2022/11/16 06:09:03;;;;;;;12.95;8.50;;;;;;;;;;4980279;28;20240;-84
2022/11/16 06:11:29;;;;;;;14.30;9.15;;;;;;;;;;4980228;28;20026;-83
2022/11/16 06:13:55;;;;;;;11.05;8.57;;;;;;;;;;4996897;28;20026;-82
2022/11/16 06:16:21;;;;;;;12.32;9.10;;;;;;;;;;4990479;28;20049;-84
2022/11/16 06:18:47;;;;;;;12.43;8.80;;;;;;;;;;4997612;28;20435;-83
2022/11/16 06:21:14;;;;;;;12.98;9.35;;;;;;;;;;4979055;28;20265;-84
2022/11/16 06:23:40;;;;;;;18.77;9.45;;;;;;;;;;4997745;28;20117;-83
2022/11/16 06:26:06;;;;;;;11.73;8.43;;;;;;;;;;4988599;28;20014;-86
2022/11/16 06:28:32;;;;;;;10.90;7.75;;;;;;;;;;5015030;28;20094;-87
2022/11/16 06:36:38;;;;;;;11.52;7.82;;;;;;;;;;4994821;28;20034;-84
2022/11/16 06:39:04;;;;;;;13.23;8.52;;;;;;;;;;4983288;28;20052;-85
2022/11/16 06:41:31;;;;;;;11.98;8.15;;;;;;;;;;5034035;28;20067;-86
2022/11/16 06:43:57;;;;;;;11.85;7.78;;;;;;;;;;5008208;28;20449;-84
2022/11/16 06:46:23;;;;;;;12.27;8.20;;;;;;;;;;5001848;28;20388;-84
2022/11/16 06:48:51;;;;;;;10.20;7.05;;;;;;;;;;5003144;28;20030;-84
2022/11/16 06:51:17;;;;;;;10.70;7.00;;;;;;;;;;4984145;28;20026;-85
2022/11/16 06:53:43;;;;;;;10.20;7.55;;;;;;;;;;4985696;28;20041;-85
2022/11/16 06:56:19;;;;;;;7.47;6.20;;;;;;;;;;4984607;28;20033;-84
2022/11/16 06:58:46;;;;;;;9.98;6.47;;;;;;;;;;4985498;28;20027;-85
2022/11/16 07:01:18;;;;;;;11.27;7.32;;;;;;;;;;4978304;28;20022;-85
2022/11/16 07:03:44;;;;;;;8.00;6.28;;;;;;;;;;4999789;28;20128;-85
2022/11/16 07:06:11;;;;;;;7.47;5.80;;;;;;;;;;4987769;28;20030;-85
2022/11/16 07:08:37;;;;;;;8.60;6.70;;;;;;;;;;5004933;28;20082;-85
2022/11/16 07:11:04;;;;;;;8.55;5.68;;;;;;;;;;4988647;28;20531;-85
2022/11/16 07:13:31;;;;;;;8.23;5.78;;;;;;;;;;5006082;28;20026;-84
2022/11/16 07:16:05;;;;;;;6.93;5.43;;;;;;;;;;5005639;28;20022;-85
2022/11/16 07:18:36;;;;;;;9.02;5.72;;;;;;;;;;5007087;28;20029;-85
2022/11/16 07:21:06;;;;;;;6.25;5.22;;;;;;;;;;4989323;28;20104;-85
2022/11/16 07:23:39;;;;;;;6.65;5.20;;;;;;;;;;5007340;28;20055;-86
2022/11/16 07:26:05;;;;;;;5.97;5.00;;;;;;;;;;5001536;28;20028;-87
2022/11/16 07:28:45;;;;;;;7.15;5.38;;;;;;;;;;5000400;28;20090;-87
2022/11/16 07:31:13;;;;;;;6.95;5.45;;;;;;;;;;5000040;28;20078;-87
2022/11/16 07:48:58;;;;;;;7.72;5.28;;;;;;;;;;4999982;28;20083;-87
2022/11/16 07:51:25;;;;;;;7.97;5.15;;;;;;;;;;5002680;28;20023;-86
2022/11/16 07:54:00;;;;;;;8.35;5.68;;;;;;;;;;4982754;28;20230;-85
2022/11/16 07:56:27;;;;;;;7.57;4.93;;;;;;;;;;5002804;28;20089;-86
2022/11/16 07:58:53;;;;;;;6.07;5.13;;;;;;;;;;4986767;28;20363;-85
2022/11/16 08:01:20;;;;;;;6.97;4.40;;;;;;;;;;5004118;28;20095;-85
2022/11/16 08:03:47;;;;;;;6.10;4.55;;;;;;;;;;4984625;28;20041;-85
2022/11/16 08:06:39;;;;;;;5.55;4.05;;;;;;;;;;4964956;23;20050;-85
2022/11/16 08:09:05;;;;;;;6.88;4.47;;;;;;;;;;4946672;29;20146;-85
2022/11/16 08:11:45;;;;;;;;;;;;;;;;;;;;;
2022/11/16 08:14:17;;;;;;;6.13;4.32;;;;;;;;;;4966973;29;20042;-84
2022/11/16 08:17:02;;;;;;;;;;;;;;;;;;;;;
2022/11/16 08:19:39;;;;;;;4.65;3.58;;;;;;;;;;4929702;29;20028;-84
2022/11/16 08:22:13;;;;;;;4.85;3.70;;;;;;;;;;4904815;29;20568;-82
2022/11/16 08:24:40;;;;;;;5.72;3.70;;;;;;;;;;4923404;29;20047;-84
2022/11/16 08:27:06;;;;;;;4.93;3.80;;;;;;;;;;4954355;29;20027;-84
2022/11/16 08:29:38;;;;;;;5.32;4.60;;;;;;;;;;4951754;29;20078;-83
2022/11/16 08:32:04;;;;;;;6.65;4.88;;;;;;;;;;4961551;29;20028;-84
2022/11/16 08:34:30;;;;;;;7.45;4.90;;;;;;;;;;4943714;29;20034;-85
2022/11/16 08:39:34;;;;;;;4.72;4.22;;;;;;;;;;4990979;23;19922;-85
2022/11/16 08:42:06;;;;;;;9.77;4.03;;;;;;;;;;4968687;28;20057;-85
2022/11/16 08:44:42;;;;;;;8.70;4.47;;;;;;;;;;4985348;28;20086;-84
2022/11/16 08:47:11;;;;;;;5.57;4.57;;;;;;;;;;4974181;28;20038;-84
2022/11/16 08:49:37;;;;;;;5.25;4.13;;;;;;;;;;4975047;28;20041;-85
2022/11/16 08:52:03;;;;;;;5.93;3.50;;;;;;;;;;4978949;28;20027;-83
2022/11/16 08:54:29;;;;;;;5.30;3.50;;;;;;;;;;4969658;28;20031;-84
2022/11/16 08:56:55;;;;;;;4.18;3.33;;;;;;;;;;4981900;28;20082;-85
2022/11/16 08:59:21;;;;;;;4.55;3.33;;;;;;;;;;4981682;28;20030;-85
2022/11/16 09:01:48;;;;;;;5.35;3.80;;;;;;;;;;4966412;28;20051;-81
2022/11/16 09:04:15;;;;;;;4.07;3.67;;;;;;;;;;4964330;28;20095;-84
2022/11/16 09:06:41;;;;;;;6.18;4.13;;;;;;;;;;4967376;28;20054;-83
2022/11/16 09:09:07;;;;;;;5.18;3.70;;;;;;;;;;4979127;28;20412;-83
2022/11/16 09:11:33;;;;;;;5.90;4.50;;;;;;;;;;4976915;28;20084;-84
2022/11/16 09:13:59;;;;;;;8.02;3.95;;;;;;;;;;4973336;28;20035;-83
2022/11/16 09:16:26;;;;;;;5.40;3.72;;;;;;;;;;4985237;28;20030;-83
2022/11/16 09:18:53;;;;;;;3.78;3.15;;;;;;;;;;4972019;28;20122;-86
2022/11/16 09:21:23;;;;;;;6.25;4.15;;;;;;;;;;4997927;28;20038;-86
2022/11/16 09:23:50;;;;;;;5.25;4.10;;;;;;;;;;4980685;28;20031;-86
2022/11/16 09:26:19;;;;;;;4.60;3.72;;;;;;;;;;4997792;28;20011;-86
2022/11/16 09:28:45;;;;;;;4.40;3.70;;;;;;;;;;4978652;28;20106;-86
2022/11/16 09:31:11;;;;;;;5.20;4.07;;;;;;;;;;4980625;28;20027;-87
2022/11/16 09:33:37;;;;;;;6.38;3.75;;;;;;;;;;4979703;28;20050;-84
2022/11/16 09:36:08;;;;;;;4.97;4.03;;;;;;;;;;4992642;28;20066;-86
2022/11/16 09:38:34;;;;;;;5.10;4.38;;;;;;;;;;4975078;28;20034;-83
2022/11/16 09:41:08;;;;;;;5.93;4.28;;;;;;;;;;4974492;28;20049;-85
2022/11/16 09:43:34;;;;;;;5.60;3.63;;;;;;;;;;4994356;28;20041;-85
2022/11/16 09:46:06;;;;;;;5.00;3.80;;;;;;;;;;4998582;28;20023;-87
2022/11/16 09:48:35;;;;;;;4.95;3.28;;;;;;;;;;4997679;28;20065;-86
2022/11/16 09:51:07;;;;;;;7.70;3.47;;;;;;;;;;4980468;28;20050;-85
2022/11/16 09:53:45;;;;;;;5.43;3.67;;;;;;;;;;4996889;28;20019;-85
2022/11/16 09:56:12;;;;;;;5.97;3.75;;;;;;;;;;4980298;28;20135;-86
2022/11/16 09:58:43;;;;;;;6.20;4.22;;;;;;;;;;4980210;28;20027;-85
2022/11/16 10:01:27;;;;;;;7.68;3.72;;;;;;;;;;4995390;28;20050;-85
2022/11/16 10:04:06;;;;;;;5.55;3.15;;;;;;;;;;4998354;28;20168;-85
2022/11/16 10:06:44;;;;;;;5.72;3.08;;;;;;;;;;4974917;28;20085;-83
2022/11/16 10:09:11;;;;;;;5.10;3.33;;;;;;;;;;4965886;28;20042;-84
2022/11/16 10:11:40;;;;;;;7.78;4.28;;;;;;;;;;4962224;28;20058;-83
2022/11/16 10:14:28;;;;;;;5.75;3.33;;;;;;;;;;4979989;28;20060;-84
2022/11/16 10:17:00;;;;;;;4.13;3.13;;;;;;;;;;4983553;28;20034;-82
2022/11/16 10:19:29;;;;;;;6.28;4.03;;;;;;;;;;4967442;28;20023;-83
2022/11/16 10:22:03;;;;;;;5.53;3.70;;;;;;;;;;4989263;28;20107;-84
2022/11/16 10:24:56;;;;;;;6.15;3.83;;;;;;;;;;4966945;28;20194;-83
2022/11/16 10:27:28;;;;;;;7.63;4.00;;;;;;;;;;4947646;28;20038;-83
2022/11/16 10:29:54;;;;;;;6.40;3.92;;;;;;;;;;4969614;28;20031;-84
2022/11/16 10:32:27;;;;;;;6.93;4.03;;;;;;;;;;4971379;28;20027;-84
2022/11/16 10:35:00;;;;;;;4.13;3.33;;;;;;;;;;4992335;28;20086;-84
2022/11/16 10:37:35;;;;;;;5.75;3.65;;;;;;;;;;4978159;28;20090;-85
2022/11/16 10:40:02;;;;;;;4.78;3.30;;;;;;;;;;4979782;28;20028;-86
2022/11/16 10:42:31;;;;;;;7.53;3.78;;;;;;;;;;4974378;28;20045;-84
2022/11/16 10:45:11;;;;;;;5.38;3.55;;;;;;;;;;4988451;28;20038;-85
2022/11/16 10:47:41;;;;;;;4.80;3.97;;;;;;;;;;4984807;28;20041;-83
2022/11/16 10:50:16;;;;;;;8.38;4.38;;;;;;;;;;4985587;28;20015;-84
2022/11/16 10:52:44;;;;;;;6.55;5.13;;;;;;;;;;4985943;28;20617;-84
2022/11/16 10:55:15;;;;;;;8.80;5.97;;;;;;;;;;4974634;28;20058;-85
2022/11/16 10:57:58;;;;;;;10.70;6.10;;;;;;;;;;4969094;28;20035;-83
2022/11/16 11:00:34;;;;;;;11.23;7.93;;;;;;;;;;4962697;28;20063;-84
2022/11/16 11:03:00;;;;;;;18.35;11.15;;;;;;;;;;4982320;28;20030;-84
2022/11/16 11:05:26;;;;;;;17.75;12.18;;;;;;;;;;4967833;28;20026;-84
2022/11/16 11:08:02;;;;;;;17.83;11.20;;;;;;;;;;4987835;28;20105;-83
2022/11/16 11:10:32;;;;;;;15.70;10.20;;;;;;;;;;4975823;28;20023;-84
2022/11/16 11:13:03;;;;;;;11.45;8.07;;;;;;;;;;4963091;28;20085;-83
2022/11/16 11:15:29;;;;;;;7.97;6.68;;;;;;;;;;4980505;28;20460;-85
2022/11/16 11:18:12;;;;;;;6.40;5.07;;;;;;;;;;4964800;28;20023;-84
2022/11/16 11:20:40;;;;;;;6.38;4.85;;;;;;;;;;4982768;28;20027;-84
2022/11/16 11:23:14;;;;;;;5.32;3.97;;;;;;;;;;4983105;28;20106;-83
2022/11/16 11:25:42;;;;;;;4.30;3.90;;;;;;;;;;4964822;28;20038;-82
2022/11/16 11:28:27;;;;;;;5.25;4.68;;;;;;;;;;4992731;28;20033;-82
2022/11/16 11:30:53;;;;;;;6.68;4.63;;;;;;;;;;4966159;28;20027;-83
2022/11/16 11:33:22;;;;;;;6.18;4.38;;;;;;;;;;4987760;28;20045;-83
2022/11/16 11:35:57;;;;;;;5.93;3.75;;;;;;;;;;4968750;28;20031;-83
2022/11/16 11:38:23;;;;;;;7.15;3.60;;;;;;;;;;4993441;28;20042;-83
2022/11/16 11:40:57;;;;;;;5.05;4.00;;;;;;;;;;4988144;28;20487;-83
2022/11/16 11:43:24;;;;;;;4.78;3.90;;;;;;;;;;4976816;28;20283;-83
2022/11/16 11:46:07;;;;;;;4.68;3.45;;;;;;;;;;4995414;28;20031;-84
2022/11/16 11:48:40;;;;;;;4.10;3.70;;;;;;;;;;4977971;28;20031;-81
2022/11/16 11:51:10;;;;;;;4.22;3.63;;;;;;;;;;4979225;28;20026;-84
2022/11/16 11:53:46;;;;;;;5.18;3.78;;;;;;;;;;4998975;28;20027;-83
2022/11/16 11:56:13;;;;;;;6.07;4.10;;;;;;;;;;4998515;28;20030;-84
2022/11/16 11:58:40;;;;;;;7.40;3.72;;;;;;;;;;4993389;28;20031;-83
2022/11/16 12:01:14;;;;;;;4.68;3.38;;;;;;;;;;4974256;28;20112;-84
2022/11/16 12:03:49;;;;;;;8.00;3.90;;;;;;;;;;4975423;28;20023;-83
2022/11/16 12:06:22;;;;;;;5.07;3.50;;;;;;;;;;4981079;28;20015;-84
2022/11/16 12:08:51;;;;;;;6.57;3.78;;;;;;;;;;4999204;28;20026;-84
2022/11/16 12:11:24;;;;;;;5.15;3.72;;;;;;;;;;4982264;28;20022;-84
2022/11/16 12:13:50;;;;;;;4.03;2.80;;;;;;;;;;5000062;28;20019;-84
2022/11/16 12:16:32;;;;;;;10.88;6.85;;;;;;;;;;4982758;28;20261;-82
2022/11/16 12:19:13;;;;;;;19.65;11.00;;;;;;;;;;4978026;28;20376;-83
2022/11/16 12:21:51;;;;;;;12.88;7.93;;;;;;;;;;4973753;28;20055;-83
2022/11/16 12:24:35;;;;;;;9.15;5.70;;;;;;;;;;4987358;28;20042;-83
2022/11/16 12:27:09;;;;;;;5.65;4.00;;;;;;;;;;4969792;28;20042;-83
2022/11/16 12:29:52;;;;;;;5.85;3.47;;;;;;;;;;4987217;28;20026;-83
2022/11/16 12:32:18;;;;;;;4.20;3.78;;;;;;;;;;4970801;28;20030;-83
2022/11/16 12:35:03;;;;;;;5.00;3.17;;;;;;;;;;4988121;28;20037;-83
2022/11/16 12:37:33;;;;;;;4.90;3.28;;;;;;;;;;4970631;28;20039;-84
2022/11/16 12:40:25;;;;;;;4.68;3.03;;;;;;;;;;4990663;28;20106;-84
2022/11/16 12:42:58;;;;;;;7.53;3.95;;;;;;;;;;4977012;28;20027;-84
2022/11/16 12:45:24;;;;;;;;;;;;;;;;;;4965221;28;20027;-83
2022/11/16 12:48:09;;;;;;;2.88;2.40;;;;;;;;;;4983106;28;20031;-82
2022/11/16 12:50:35;;;;;;;3.95;2.85;;;;;;;;;;4964665;28;20037;-82
2022/11/16 12:53:17;;;;;;;5.05;3.58;;;;;;;;;;4980372;28;20066;-82
2022/11/16 12:55:52;;;;;;;3.97;3.05;;;;;;;;;;4981124;28;20110;-83
2022/11/16 12:58:18;;;;;;;3.63;2.90;;;;;;;;;;4983020;28;20027;-82
2022/11/16 13:00:54;;;;;;;3.65;2.65;;;;;;;;;;4990844;28;20023;-85
2022/11/16 13:03:26;;;;;;;3.05;2.33;;;;;;;;;;4964524;28;20159;-82
2022/11/16 13:06:08;;;;;;;7.82;3.25;;;;;;;;;;4970446;28;20027;-85
2022/11/16 13:08:34;;;;;;;;;;;;;;;;;;4978533;28;20054;-83
2022/11/16 13:11:12;;;;;;;7.30;2.42;;;;;;;;;;4984799;28;19910;-83
2022/11/16 13:13:56;;;;;;;2.55;2.10;;;;;;;;;;4965670;28;20036;-85
2022/11/16 13:16:44;;;;;;;3.88;2.10;;;;;;;;;;5013219;23;20070;-84
2022/11/16 13:19:14;;;;;;;2.53;1.75;;;;;;;;;;4990077;28;20062;-83
2022/11/16 13:22:01;;;;;;;2.30;2.05;;;;;;;;;;4969513;28;20019;-83
2022/11/16 13:24:46;;;;;;;2.35;1.63;;;;;;;;;;4974282;28;20027;-82
2022/11/16 13:30:13;;;;;;;4.57;2.30;;;;;;;;;;4957918;28;20038;-83
2022/11/16 13:33:15;;;;;;;3.80;2.50;;;;;;;;;;5011090;28;20025;-82
2022/11/16 13:35:41;;;;;;;30.27;17.90;;;;;;;;;;4879179;29;20040;-81
2022/11/16 13:38:13;;;;;;;25.10;17.95;;;;;;;;;;4962510;28;20035;-82
2022/11/16 13:40:40;;;;;;;21.05;15.80;;;;;;;;;;4960483;29;20035;-84
2022/11/16 13:43:07;;;;;;;8.23;6.20;;;;;;;;;;4975006;28;20062;-81
2022/11/16 13:45:35;;;;;;;5.05;4.55;;;;;;;;;;4990633;28;20014;-81
2022/11/16 13:48:03;;;;;;;4.55;1.55;;;;;;;;;;4994774;28;20027;-82
2022/11/16 13:50:29;;;;;;;3.28;1.73;;;;;;;;;;4963246;28;20086;-83
2022/11/16 13:53:03;;;;;;;3.55;1.60;;;;;;;;;;4967152;29;20027;-82
2022/11/16 13:55:45;;;;;;;2.45;1.85;;;;;;;;;;4966830;29;20034;-82
2022/11/16 13:58:19;;;;;;;3.20;1.70;;;;;;;;;;4964025;28;20038;-85
2022/11/16 14:00:54;;;;;;;6.25;4.47;;;;;;;;;;4985375;28;20031;-82
2022/11/16 14:03:20;;;;;;;5.60;1.92;;;;;;;;;;4988924;28;20439;-81
2022/11/16 14:05:47;;;;;;;2.55;2.30;;;;;;;;;;4995543;28;20041;-80
2022/11/16 14:08:19;;;;;;;12.88;8.88;;;;;;;;;;4979448;28;20086;-78
2022/11/16 14:10:45;;;;;;;;;;;;;;;;;;4996929;28;20031;-78
2022/11/16 14:13:32;;;;;;;14.48;9.70;;;;;;;;;;4984997;28;19930;-79
2022/11/16 14:16:18;;;;;;;32.20;19.83;;;;;;;;;;4977059;28;20027;-79
2022/11/16 14:18:44;;;;;;;24.40;16.23;;;;;;;;;;4947280;29;20081;-84
2022/11/16 14:21:17;;;;;;;12.43;5.45;;;;;;;;;;4964534;28;20035;-84
2022/11/16 14:23:55;;;;;;;10.63;6.93;;;;;;;;;;4963843;28;20030;-84
2022/11/16 14:26:25;;;;;;;4.25;2.20;;;;;;;;;;4973383;28;20020;-82
2022/11/16 14:29:00;;;;;;;3.17;1.95;;;;;;;;;;4947776;29;20039;-83
2022/11/16 14:31:30;;;;;;;3.17;1.63;;;;;;;;;;4967893;28;20058;-84
2022/11/16 14:33:58;;;;;;;5.13;1.60;;;;;;;;;;4978649;28;20007;-84
2022/11/16 14:36:36;;;;;;;2.83;1.10;;;;;;;;;;4956457;29;20023;-82
2022/11/16 14:39:21;;;;;;;7.00;1.83;;;;;;;;;;4977164;28;20106;-81
2022/11/16 14:41:47;;;;;;;6.93;3.75;;;;;;;;;;4963739;28;20023;-84
2022/11/16 14:44:17;;;;;;;6.78;4.43;;;;;;;;;;4973561;28;20032;-82
2022/11/16 14:46:43;;;;;;;8.77;5.25;;;;;;;;;;4952809;29;20071;-80
2022/11/16 14:49:12;;;;;;;13.05;5.57;;;;;;;;;;4986856;28;20035;-84
2022/11/16 14:51:42;;;;;;;6.65;4.93;;;;;;;;;;4962390;28;20100;-84
2022/11/16 14:54:15;;;;;;;7.20;4.88;;;;;;;;;;4971081;28;20039;-83
2022/11/16 14:57:00;;;;;;;6.88;5.38;;;;;;;;;;4972399;28;20101;-84
2022/11/16 14:59:26;;;;;;;6.15;4.72;;;;;;;;;;4980556;28;20058;-83
2022/11/16 15:01:53;;;;;;;5.95;4.85;;;;;;;;;;4951150;29;20504;-83
2022/11/16 15:04:20;;;;;;;8.18;5.43;;;;;;;;;;4947620;29;20035;-84
2022/11/16 15:06:52;;;;;;;6.20;3.75;;;;;;;;;;4961414;29;20091;-84
2022/11/16 15:09:35;;;;;;;5.35;3.42;;;;;;;;;;4956692;28;20050;-84
2022/11/16 15:14:55;;;;;;;4.80;3.40;;;;;;;;;;4978932;28;20037;-85
2022/11/16 15:17:23;;;;;;;6.18;3.10;;;;;;;;;;4970006;28;20035;-86
2022/11/16 15:19:56;;;;;;;5.72;3.08;;;;;;;;;;4954010;29;20058;-83
2022/11/16 15:22:23;;;;;;;2.60;2.40;;;;;;;;;;4971763;28;20083;-84
2022/11/16 15:24:56;;;;;;;4.47;2.38;;;;;;;;;;4981693;28;20082;-84
2022/11/16 15:27:36;;;;;;;3.80;2.55;;;;;;;;;;4981433;28;20137;-85
2022/11/16 15:30:04;;;;;;;2.35;2.03;;;;;;;;;;4969533;28;20042;-84
2022/11/16 15:32:36;;;;;;;3.40;2.17;;;;;;;;;;4971690;28;20081;-85
2022/11/16 15:35:03;;;;;;;3.85;2.38;;;;;;;;;;4972498;28;20046;-81
2022/11/16 15:37:29;;;;;;;5.35;2.75;;;;;;;;;;4988359;28;20300;-84
2022/11/16 15:39:56;;;;;;;4.68;2.70;;;;;;;;;;4987961;28;20086;-81
2022/11/16 15:42:23;;;;;;;6.80;3.08;;;;;;;;;;4955413;29;20133;-85
2022/11/16 15:44:50;;;;;;;4.93;2.70;;;;;;;;;;4972357;28;20027;-82
2022/11/16 15:47:16;;;;;;;5.78;2.35;;;;;;;;;;4964485;28;20045;-85
2022/11/16 15:49:43;;;;;;;3.92;2.20;;;;;;;;;;4989581;28;20039;-84
2022/11/16 15:52:10;;;;;;;4.72;2.40;;;;;;;;;;4986382;28;20102;-86
2022/11/16 15:57:22;;;;;;;1.98;1.60;;;;;;;;;;4985503;28;20066;-85
2022/11/16 15:59:49;;;;;;;3.85;1.67;;;;;;;;;;4964495;28;20041;-84
2022/11/16 16:02:20;;;;;;;3.28;1.85;;;;;;;;;;4988693;28;20091;-84
2022/11/16 16:04:46;;;;;;;3.70;1.85;;;;;;;;;;4955846;29;20082;-84
2022/11/16 16:07:32;;;;;;;5.30;1.90;;;;;;;;;;4949769;29;20166;-84
2022/11/16 16:10:12;;;;;;;2.80;2.03;;;;;;;;;;4970096;28;20038;-84